sensor_id;sensor_type;location;lat;lon;timestamp;pressure;altitude;pressure_sealevel;temperature;humidity
14295;BME280;7231;59.370;18.016;2023-05-01T00:00:30;101298.84;;;5.89;47.11
14295;BME280;7231;59.370;18.016;2023-05-01T00:02:58;101309.78;;;5.83;46.70
14295;BME280;7231;59.370;18.016;2023-05-01T00:05:26;101310.50;;;5.81;47.15
14295;BME280;7231;59.370;18.016;2023-05-01T00:07:54;101303.44;;;5.78;47.59
14295;BME280;7231;59.370;18.016;2023-05-01T00:10:23;101305.94;;;5.77;47.77
14295;BME280;7231;59.370;18.016;2023-05-01T00:12:52;101300.56;;;5.74;47.29
14295;BME280;7231;59.370;18.016;2023-05-01T00:15:21;101305.78;;;5.74;47.73
14295;BME280;7231;59.370;18.016;2023-05-01T00:17:50;101310.00;;;5.72;47.33
14295;BME280;7231;59.370;18.016;2023-05-01T00:20:20;101306.25;;;5.67;47.71
14295;BME280;7231;59.370;18.016;2023-05-01T00:22:49;101311.28;;;5.64;47.88
14295;BME280;7231;59.370;18.016;2023-05-01T00:25:17;101310.13;;;5.59;48.33
14295;BME280;7231;59.370;18.016;2023-05-01T00:27:45;101310.13;;;5.59;48.02
14295;BME280;7231;59.370;18.016;2023-05-01T00:30:15;101305.75;;;5.58;48.61
14295;BME280;7231;59.370;18.016;2023-05-01T00:32:43;101295.47;;;5.44;48.39
14295;BME280;7231;59.370;18.016;2023-05-01T00:35:11;101302.72;;;5.50;48.74
14295;BME280;7231;59.370;18.016;2023-05-01T00:37:39;101303.44;;;5.47;49.15
14295;BME280;7231;59.370;18.016;2023-05-01T00:40:08;101176.22;;;4.72;49.04
14295;BME280;7231;59.370;18.016;2023-05-01T00:42:36;101298.81;;;5.42;48.88
14295;BME280;7231;59.370;18.016;2023-05-01T00:45:06;101223.28;;;4.93;49.57
14295;BME280;7231;59.370;18.016;2023-05-01T00:47:37;101299.34;;;5.36;49.44
14295;BME280;7231;59.370;18.016;2023-05-01T00:50:06;101284.94;;;5.27;49.49
14295;BME280;7231;59.370;18.016;2023-05-01T00:52:34;101297.38;;;5.32;49.64
14295;BME280;7231;59.370;18.016;2023-05-01T00:55:03;101292.81;;;5.28;49.78
14295;BME280;7231;59.370;18.016;2023-05-01T00:57:31;101298.84;;;5.27;50.09
14295;BME280;7231;59.370;18.016;2023-05-01T00:59:59;101298.56;;;5.22;50.09
14295;BME280;7231;59.370;18.016;2023-05-01T01:02:27;101291.44;;;5.18;50.21
14295;BME280;7231;59.370;18.016;2023-05-01T01:04:56;101297.38;;;5.16;50.24
14295;BME280;7231;59.370;18.016;2023-05-01T01:07:32;101302.31;;;5.11;50.31
14295;BME280;7231;59.370;18.016;2023-05-01T01:10:09;101290.84;;;5.08;50.88
14295;BME280;7231;59.370;18.016;2023-05-01T01:12:47;101291.47;;;5.04;51.16
14295;BME280;7231;59.370;18.016;2023-05-01T01:15:26;101251.91;;;4.78;52.01
14295;BME280;7231;59.370;18.016;2023-05-01T01:18:01;101284.94;;;4.96;51.79
14295;BME280;7231;59.370;18.016;2023-05-01T01:20:36;101288.53;;;4.98;51.97
14295;BME280;7231;59.370;18.016;2023-05-01T01:23:32;101290.03;;;4.94;52.28
14295;BME280;7231;59.370;18.016;2023-05-01T01:26:12;101280.28;;;4.90;52.42
14295;BME280;7231;59.370;18.016;2023-05-01T01:32:41;101290.16;;;4.81;52.90
14295;BME280;7231;59.370;18.016;2023-05-01T01:35:19;101258.78;;;4.63;52.63
14295;BME280;7231;59.370;18.016;2023-05-01T01:37:59;101284.41;;;4.72;53.01
14295;BME280;7231;59.370;18.016;2023-05-01T01:40:33;101281.91;;;4.73;52.92
14295;BME280;7231;59.370;18.016;2023-05-01T01:43:06;101275.72;;;4.71;53.39
14295;BME280;7231;59.370;18.016;2023-05-01T01:45:36;101271.34;;;4.70;53.47
14295;BME280;7231;59.370;18.016;2023-05-01T01:48:08;101278.94;;;4.67;53.77
14295;BME280;7231;59.370;18.016;2023-05-01T01:50:40;101097.13;;;3.63;54.22
14295;BME280;7231;59.370;18.016;2023-05-01T01:53:10;101268.38;;;4.64;54.44
14295;BME280;7231;59.370;18.016;2023-05-01T01:55:41;101245.00;;;4.49;54.46
14295;BME280;7231;59.370;18.016;2023-05-01T01:58:10;101269.91;;;4.61;54.81
14295;BME280;7231;59.370;18.016;2023-05-01T02:00:39;101266.13;;;4.55;54.82
14295;BME280;7231;59.370;18.016;2023-05-01T02:03:09;101204.16;;;4.17;55.03
14295;BME280;7231;59.370;18.016;2023-05-01T02:05:40;101266.84;;;4.53;55.35
14295;BME280;7231;59.370;18.016;2023-05-01T02:08:10;101245.44;;;4.42;55.23
14295;BME280;7231;59.370;18.016;2023-05-01T02:10:40;101250.56;;;4.41;55.53
14295;BME280;7231;59.370;18.016;2023-05-01T02:13:10;101262.09;;;4.46;55.74
14295;BME280;7231;59.370;18.016;2023-05-01T02:15:41;101262.00;;;4.44;55.93
14295;BME280;7231;59.370;18.016;2023-05-01T02:18:09;101261.13;;;4.44;56.03
14295;BME280;7231;59.370;18.016;2023-05-01T02:20:40;101265.31;;;4.42;56.29
14295;BME280;7231;59.370;18.016;2023-05-01T02:23:10;101200.03;;;4.06;56.37
14295;BME280;7231;59.370;18.016;2023-05-01T02:25:39;101259.16;;;4.40;56.38
14295;BME280;7231;59.370;18.016;2023-05-01T02:28:11;101260.75;;;4.38;56.64
14295;BME280;7231;59.370;18.016;2023-05-01T02:30:39;101241.94;;;4.27;56.88
14295;BME280;7231;59.370;18.016;2023-05-01T02:33:08;101241.50;;;4.34;57.58
14295;BME280;7231;59.370;18.016;2023-05-01T02:35:41;101237.47;;;4.39;57.39
14295;BME280;7231;59.370;18.016;2023-05-01T02:38:10;101241.78;;;4.39;57.50
14295;BME280;7231;59.370;18.016;2023-05-01T02:40:42;101242.59;;;4.38;57.71
14295;BME280;7231;59.370;18.016;2023-05-01T02:43:12;101243.38;;;4.37;57.93
14295;BME280;7231;59.370;18.016;2023-05-01T02:45:41;101232.81;;;4.34;58.11
14295;BME280;7231;59.370;18.016;2023-05-01T02:48:12;101230.22;;;4.34;58.39
14295;BME280;7231;59.370;18.016;2023-05-01T02:50:45;101233.72;;;4.34;58.17
14295;BME280;7231;59.370;18.016;2023-05-01T02:53:15;101208.03;;;4.24;58.68
14295;BME280;7231;59.370;18.016;2023-05-01T02:55:44;101220.66;;;4.33;58.73
14295;BME280;7231;59.370;18.016;2023-05-01T02:58:15;101224.03;;;4.32;58.81
14295;BME280;7231;59.370;18.016;2023-05-01T03:00:43;101215.47;;;4.33;59.26
14295;BME280;7231;59.370;18.016;2023-05-01T03:03:11;101218.06;;;4.33;59.30
14295;BME280;7231;59.370;18.016;2023-05-01T03:05:41;101222.34;;;4.32;59.46
14295;BME280;7231;59.370;18.016;2023-05-01T03:08:13;101221.44;;;4.32;59.64
14295;BME280;7231;59.370;18.016;2023-05-01T03:10:41;101210.19;;;4.31;59.99
14295;BME280;7231;59.370;18.016;2023-05-01T03:13:10;101219.66;;;4.31;60.18
14295;BME280;7231;59.370;18.016;2023-05-01T03:15:38;101127.81;;;3.84;60.35
14295;BME280;7231;59.370;18.016;2023-05-01T03:18:06;101216.25;;;4.32;60.33
14295;BME280;7231;59.370;18.016;2023-05-01T03:20:35;101211.16;;;4.33;60.46
14295;BME280;7231;59.370;18.016;2023-05-01T03:23:03;101214.75;;;4.35;60.40
14295;BME280;7231;59.370;18.016;2023-05-01T03:25:33;101213.03;;;4.36;60.39
14295;BME280;7231;59.370;18.016;2023-05-01T03:28:02;101190.75;;;4.24;60.71
14295;BME280;7231;59.370;18.016;2023-05-01T03:30:32;101194.59;;;4.31;60.74
14295;BME280;7231;59.370;18.016;2023-05-01T03:33:00;101211.59;;;4.41;61.17
14295;BME280;7231;59.370;18.016;2023-05-01T03:35:28;101204.00;;;4.44;60.96
14295;BME280;7231;59.370;18.016;2023-05-01T03:37:56;101203.19;;;4.45;60.90
14295;BME280;7231;59.370;18.016;2023-05-01T03:40:24;101205.97;;;4.48;61.15
14295;BME280;7231;59.370;18.016;2023-05-01T03:42:53;101199.16;;;4.50;61.42
14295;BME280;7231;59.370;18.016;2023-05-01T03:45:21;101197.56;;;4.52;61.35
14295;BME280;7231;59.370;18.016;2023-05-01T03:47:50;101194.94;;;4.52;61.54
14295;BME280;7231;59.370;18.016;2023-05-01T03:50:18;101194.69;;;4.47;61.71
14295;BME280;7231;59.370;18.016;2023-05-01T03:52:46;101202.75;;;4.52;61.79
14295;BME280;7231;59.370;18.016;2023-05-01T03:55:14;101207.03;;;4.51;62.05
14295;BME280;7231;59.370;18.016;2023-05-01T03:57:42;101200.94;;;4.51;62.04
14295;BME280;7231;59.370;18.016;2023-05-01T04:00:14;101195.75;;;4.51;62.18
14295;BME280;7231;59.370;18.016;2023-05-01T04:02:44;101173.38;;;4.38;62.33
14295;BME280;7231;59.370;18.016;2023-05-01T04:05:12;101196.75;;;4.53;62.59
14295;BME280;7231;59.370;18.016;2023-05-01T04:07:40;101163.72;;;4.36;62.80
14295;BME280;7231;59.370;18.016;2023-05-01T04:10:09;101191.72;;;4.56;62.69
14295;BME280;7231;59.370;18.016;2023-05-01T04:12:37;101193.50;;;4.57;62.64
14295;BME280;7231;59.370;18.016;2023-05-01T04:15:06;101184.09;;;4.59;62.53
14295;BME280;7231;59.370;18.016;2023-05-01T04:17:35;101180.16;;;4.66;62.57
14295;BME280;7231;59.370;18.016;2023-05-01T04:20:04;101186.59;;;4.72;62.67
14295;BME280;7231;59.370;18.016;2023-05-01T04:22:32;101180.84;;;4.78;62.78
14295;BME280;7231;59.370;18.016;2023-05-01T04:25:01;101177.63;;;4.82;62.63
14295;BME280;7231;59.370;18.016;2023-05-01T04:27:29;101180.66;;;4.89;62.75
14295;BME280;7231;59.370;18.016;2023-05-01T04:29:57;101155.13;;;4.82;62.64
14295;BME280;7231;59.370;18.016;2023-05-01T04:32:25;101178.56;;;4.99;63.08
14295;BME280;7231;59.370;18.016;2023-05-01T04:34:55;101186.53;;;5.02;63.14
14295;BME280;7231;59.370;18.016;2023-05-01T04:37:23;101017.50;;;4.20;62.66
14295;BME280;7231;59.370;18.016;2023-05-01T04:39:51;101169.00;;;5.14;62.52
14295;BME280;7231;59.370;18.016;2023-05-01T04:42:19;101182.81;;;5.29;62.65
14295;BME280;7231;59.370;18.016;2023-05-01T04:44:48;101154.56;;;5.19;62.83
14295;BME280;7231;59.370;18.016;2023-05-01T04:47:16;101180.41;;;5.48;62.56
14295;BME280;7231;59.370;18.016;2023-05-01T04:49:44;101062.66;;;4.86;62.40
14295;BME280;7231;59.370;18.016;2023-05-01T04:52:13;101190.06;;;5.67;62.71
14295;BME280;7231;59.370;18.016;2023-05-01T04:54:42;101186.00;;;5.72;62.51
14295;BME280;7231;59.370;18.016;2023-05-01T04:57:10;101188.28;;;5.82;62.00
14295;BME280;7231;59.370;18.016;2023-05-01T04:59:38;101182.50;;;5.88;62.11
14295;BME280;7231;59.370;18.016;2023-05-01T05:02:06;101179.22;;;5.91;62.34
14295;BME280;7231;59.370;18.016;2023-05-01T05:04:34;101178.31;;;5.90;62.28
14295;BME280;7231;59.370;18.016;2023-05-01T05:07:02;101187.72;;;5.88;62.93
14295;BME280;7231;59.370;18.016;2023-05-01T05:09:32;101181.06;;;5.93;62.22
14295;BME280;7231;59.370;18.016;2023-05-01T05:12:00;101175.22;;;5.97;62.51
14295;BME280;7231;59.370;18.016;2023-05-01T05:14:29;101174.47;;;6.00;62.18
14295;BME280;7231;59.370;18.016;2023-05-01T05:16:57;101146.88;;;5.87;62.27
14295;BME280;7231;59.370;18.016;2023-05-01T05:19:26;101172.94;;;6.03;62.22
14295;BME280;7231;59.370;18.016;2023-05-01T05:21:54;101167.06;;;6.07;62.77
14295;BME280;7231;59.370;18.016;2023-05-01T05:24:22;101162.97;;;6.12;62.53
14295;BME280;7231;59.370;18.016;2023-05-01T05:26:51;101161.03;;;6.08;62.06
14295;BME280;7231;59.370;18.016;2023-05-01T05:29:20;101049.50;;;5.32;62.93
14295;BME280;7231;59.370;18.016;2023-05-01T05:31:48;101147.91;;;5.89;62.55
14295;BME280;7231;59.370;18.016;2023-05-01T05:34:16;101162.97;;;6.12;62.30
14295;BME280;7231;59.370;18.016;2023-05-01T05:36:45;101160.47;;;6.14;63.09
14295;BME280;7231;59.370;18.016;2023-05-01T05:39:13;101152.91;;;6.02;63.14
14295;BME280;7231;59.370;18.016;2023-05-01T05:41:41;101171.84;;;6.16;63.19
14295;BME280;7231;59.370;18.016;2023-05-01T05:44:10;101153.81;;;6.03;63.57
14295;BME280;7231;59.370;18.016;2023-05-01T05:46:38;101173.47;;;6.14;63.21
14295;BME280;7231;59.370;18.016;2023-05-01T05:49:06;101168.66;;;6.22;62.70
14295;BME280;7231;59.370;18.016;2023-05-01T05:51:34;101167.84;;;6.23;63.62
14295;BME280;7231;59.370;18.016;2023-05-01T05:54:03;101171.91;;;6.17;63.01
14295;BME280;7231;59.370;18.016;2023-05-01T05:56:31;101162.56;;;6.21;63.48
14295;BME280;7231;59.370;18.016;2023-05-01T05:58:59;101170.75;;;6.29;63.67
14295;BME280;7231;59.370;18.016;2023-05-01T06:01:31;101139.94;;;6.20;64.08
14295;BME280;7231;59.370;18.016;2023-05-01T06:03:59;101147.31;;;6.29;63.68
14295;BME280;7231;59.370;18.016;2023-05-01T06:06:27;101163.41;;;6.38;63.70
14295;BME280;7231;59.370;18.016;2023-05-01T06:08:55;101158.50;;;6.44;63.75
14295;BME280;7231;59.370;18.016;2023-05-01T06:11:23;101163.94;;;6.48;63.71
14295;BME280;7231;59.370;18.016;2023-05-01T06:13:52;101158.94;;;6.53;63.81
14295;BME280;7231;59.370;18.016;2023-05-01T06:16:20;101138.34;;;6.58;63.55
14295;BME280;7231;59.370;18.016;2023-05-01T06:18:49;101147.41;;;6.83;63.64
14295;BME280;7231;59.370;18.016;2023-05-01T06:21:18;101151.69;;;7.01;62.92
14295;BME280;7231;59.370;18.016;2023-05-01T06:23:46;101150.34;;;7.09;62.82
14295;BME280;7231;59.370;18.016;2023-05-01T06:26:14;101148.72;;;7.11;62.21
14295;BME280;7231;59.370;18.016;2023-05-01T06:28:42;101149.00;;;7.17;62.92
14295;BME280;7231;59.370;18.016;2023-05-01T06:31:10;101151.59;;;7.17;62.20
14295;BME280;7231;59.370;18.016;2023-05-01T06:33:38;101153.78;;;7.08;61.81
14295;BME280;7231;59.370;18.016;2023-05-01T06:36:07;101156.78;;;6.98;62.34
14295;BME280;7231;59.370;18.016;2023-05-01T06:38:35;101136.16;;;6.84;62.36
14295;BME280;7231;59.370;18.016;2023-05-01T06:41:03;101150.41;;;7.10;62.84
14295;BME280;7231;59.370;18.016;2023-05-01T06:43:31;100956.22;;;6.07;62.73
14295;BME280;7231;59.370;18.016;2023-05-01T06:45:59;101124.50;;;7.13;62.64
14295;BME280;7231;59.370;18.016;2023-05-01T06:48:27;101145.03;;;7.44;62.32
14295;BME280;7231;59.370;18.016;2023-05-01T06:50:55;101094.66;;;7.26;62.17
14295;BME280;7231;59.370;18.016;2023-05-01T06:53:25;101137.69;;;7.55;61.68
14295;BME280;7231;59.370;18.016;2023-05-01T06:55:53;101143.94;;;7.59;61.98
14295;BME280;7231;59.370;18.016;2023-05-01T06:58:21;101145.94;;;7.45;61.24
14295;BME280;7231;59.370;18.016;2023-05-01T07:00:50;101138.03;;;7.43;62.21
14295;BME280;7231;59.370;18.016;2023-05-01T07:03:19;101139.97;;;7.67;62.55
14295;BME280;7231;59.370;18.016;2023-05-01T07:05:47;101121.22;;;7.75;61.33
14295;BME280;7231;59.370;18.016;2023-05-01T07:08:15;101143.81;;;7.96;60.94
14295;BME280;7231;59.370;18.016;2023-05-01T07:10:44;101138.13;;;7.85;60.42
14295;BME280;7231;59.370;18.016;2023-05-01T07:13:12;101140.44;;;7.77;61.27
14295;BME280;7231;59.370;18.016;2023-05-01T07:15:40;101116.53;;;7.68;61.76
14295;BME280;7231;59.370;18.016;2023-05-01T07:18:08;101107.25;;;7.75;62.00
14295;BME280;7231;59.370;18.016;2023-05-01T07:20:38;101127.59;;;8.03;61.94
14295;BME280;7231;59.370;18.016;2023-05-01T07:23:06;101129.69;;;8.11;61.74
14295;BME280;7231;59.370;18.016;2023-05-01T07:25:36;101128.81;;;8.32;61.93
14295;BME280;7231;59.370;18.016;2023-05-01T07:28:08;101130.25;;;8.44;61.62
14295;BME280;7231;59.370;18.016;2023-05-01T07:30:36;101125.66;;;8.39;61.46
14295;BME280;7231;59.370;18.016;2023-05-01T07:33:04;101125.72;;;8.61;61.29
14295;BME280;7231;59.370;18.016;2023-05-01T07:35:32;101126.31;;;8.76;61.29
14295;BME280;7231;59.370;18.016;2023-05-01T07:38:00;101091.38;;;8.74;60.97
14295;BME280;7231;59.370;18.016;2023-05-01T07:40:28;101122.22;;;9.05;61.03
14295;BME280;7231;59.370;18.016;2023-05-01T07:42:56;101115.47;;;9.34;60.49
14295;BME280;7231;59.370;18.016;2023-05-01T07:45:25;101053.69;;;8.92;58.64
14295;BME280;7231;59.370;18.016;2023-05-01T07:47:53;100956.25;;;8.06;58.99
14295;BME280;7231;59.370;18.016;2023-05-01T07:50:22;101113.31;;;8.78;59.61
14295;BME280;7231;59.370;18.016;2023-05-01T07:52:51;101083.00;;;8.61;59.71
14295;BME280;7231;59.370;18.016;2023-05-01T07:55:20;101104.16;;;8.89;59.72
14295;BME280;7231;59.370;18.016;2023-05-01T07:57:48;101102.56;;;8.93;59.46
14295;BME280;7231;59.370;18.016;2023-05-01T08:00:17;101092.16;;;8.94;59.14
14295;BME280;7231;59.370;18.016;2023-05-01T08:02:46;101102.06;;;9.03;59.16
14295;BME280;7231;59.370;18.016;2023-05-01T08:05:14;101097.31;;;9.15;58.62
14295;BME280;7231;59.370;18.016;2023-05-01T08:07:42;101093.75;;;9.13;57.53
14295;BME280;7231;59.370;18.016;2023-05-01T08:10:11;101098.69;;;9.05;57.22
14295;BME280;7231;59.370;18.016;2023-05-01T08:12:40;101098.84;;;9.10;57.11
14295;BME280;7231;59.370;18.016;2023-05-01T08:15:09;101066.13;;;8.97;57.30
14295;BME280;7231;59.370;18.016;2023-05-01T08:17:37;101099.88;;;9.14;57.07
14295;BME280;7231;59.370;18.016;2023-05-01T08:20:08;101100.03;;;9.18;56.77
14295;BME280;7231;59.370;18.016;2023-05-01T08:22:36;101104.69;;;9.03;56.54
14295;BME280;7231;59.370;18.016;2023-05-01T08:25:04;101063.16;;;8.88;56.76
14295;BME280;7231;59.370;18.016;2023-05-01T08:27:32;101108.19;;;9.03;54.77
14295;BME280;7231;59.370;18.016;2023-05-01T08:30:00;101054.31;;;8.62;54.52
14295;BME280;7231;59.370;18.016;2023-05-01T08:32:28;101105.41;;;8.99;54.87
14295;BME280;7231;59.370;18.016;2023-05-01T08:34:58;101101.47;;;9.10;54.99
14295;BME280;7231;59.370;18.016;2023-05-01T08:37:30;101112.28;;;9.19;54.18
14295;BME280;7231;59.370;18.016;2023-05-01T08:39:58;101107.94;;;9.20;54.08
14295;BME280;7231;59.370;18.016;2023-05-01T08:42:26;101096.97;;;9.06;53.55
14295;BME280;7231;59.370;18.016;2023-05-01T08:44:58;101096.97;;;9.06;53.85
14295;BME280;7231;59.370;18.016;2023-05-01T08:47:28;101081.81;;;8.97;53.91
14295;BME280;7231;59.370;18.016;2023-05-01T08:49:57;101093.97;;;9.19;54.10
14295;BME280;7231;59.370;18.016;2023-05-01T08:52:26;101108.53;;;9.35;54.09
14295;BME280;7231;59.370;18.016;2023-05-01T08:54:57;101083.78;;;9.27;53.83
14295;BME280;7231;59.370;18.016;2023-05-01T08:57:28;101076.44;;;9.17;53.65
14295;BME280;7231;59.370;18.016;2023-05-01T08:59:57;101049.31;;;8.91;53.90
14295;BME280;7231;59.370;18.016;2023-05-01T09:02:26;101096.00;;;9.26;54.32
14295;BME280;7231;59.370;18.016;2023-05-01T09:04:55;101088.66;;;9.40;54.28
14295;BME280;7231;59.370;18.016;2023-05-01T09:07:24;101035.53;;;9.42;54.94
14295;BME280;7231;59.370;18.016;2023-05-01T09:09:52;101062.56;;;10.18;55.02
14295;BME280;7231;59.370;18.016;2023-05-01T09:12:25;101077.19;;;10.65;53.62
14295;BME280;7231;59.370;18.016;2023-05-01T09:14:54;101062.03;;;10.55;52.91
14295;BME280;7231;59.370;18.016;2023-05-01T09:17:23;101058.69;;;10.60;52.98
14295;BME280;7231;59.370;18.016;2023-05-01T09:19:52;101069.84;;;10.82;52.79
14295;BME280;7231;59.370;18.016;2023-05-01T09:22:20;101057.53;;;10.79;52.44
14295;BME280;7231;59.370;18.016;2023-05-01T09:24:48;101073.28;;;10.79;52.59
14295;BME280;7231;59.370;18.016;2023-05-01T09:27:16;101073.63;;;10.63;52.67
14295;BME280;7231;59.370;18.016;2023-05-01T09:29:47;101054.44;;;10.35;53.14
14295;BME280;7231;59.370;18.016;2023-05-01T09:32:16;100884.63;;;9.18;53.31
14295;BME280;7231;59.370;18.016;2023-05-01T09:34:47;101065.03;;;9.88;54.00
14295;BME280;7231;59.370;18.016;2023-05-01T09:37:24;101068.06;;;9.74;54.24
14295;BME280;7231;59.370;18.016;2023-05-01T09:40:05;101051.25;;;9.68;54.16
14295;BME280;7231;59.370;18.016;2023-05-01T09:42:35;101047.75;;;9.67;53.31
14295;BME280;7231;59.370;18.016;2023-05-01T09:45:10;101041.69;;;9.44;53.64
14295;BME280;7231;59.370;18.016;2023-05-01T09:47:39;101036.69;;;9.51;54.19
14295;BME280;7231;59.370;18.016;2023-05-01T09:50:09;101038.75;;;9.35;54.62
14295;BME280;7231;59.370;18.016;2023-05-01T09:52:37;101033.19;;;9.26;55.15
14295;BME280;7231;59.370;18.016;2023-05-01T09:55:12;100993.84;;;8.99;55.64
14295;BME280;7231;59.370;18.016;2023-05-01T09:57:40;101052.22;;;9.22;55.77
14295;BME280;7231;59.370;18.016;2023-05-01T10:00:12;101040.59;;;9.14;56.09
14295;BME280;7231;59.370;18.016;2023-05-01T10:02:44;101041.25;;;9.32;56.21
14295;BME280;7231;59.370;18.016;2023-05-01T10:05:12;101026.56;;;9.36;56.44
14295;BME280;7231;59.370;18.016;2023-05-01T10:07:54;101028.88;;;9.52;57.40
14295;BME280;7231;59.370;18.016;2023-05-01T10:10:24;101027.94;;;9.50;56.83
14295;BME280;7231;59.370;18.016;2023-05-01T10:12:52;101026.72;;;9.40;57.00
14295;BME280;7231;59.370;18.016;2023-05-01T10:15:21;101019.59;;;9.36;56.68
14295;BME280;7231;59.370;18.016;2023-05-01T10:17:53;101014.47;;;9.39;56.50
14295;BME280;7231;59.370;18.016;2023-05-01T10:20:21;101014.06;;;9.53;55.53
14295;BME280;7231;59.370;18.016;2023-05-01T10:22:49;101007.50;;;9.40;55.06
14295;BME280;7231;59.370;18.016;2023-05-01T10:25:19;101015.22;;;9.35;55.28
14295;BME280;7231;59.370;18.016;2023-05-01T10:27:49;101002.50;;;9.46;55.42
14295;BME280;7231;59.370;18.016;2023-05-01T10:30:18;100973.13;;;9.55;55.30
14295;BME280;7231;59.370;18.016;2023-05-01T10:32:49;100989.88;;;9.85;54.72
14295;BME280;7231;59.370;18.016;2023-05-01T10:35:23;100992.31;;;10.06;54.54
14295;BME280;7231;59.370;18.016;2023-05-01T10:37:59;100987.31;;;10.14;53.84
14295;BME280;7231;59.370;18.016;2023-05-01T10:40:47;100983.00;;;10.16;53.43
14295;BME280;7231;59.370;18.016;2023-05-01T10:43:17;100989.03;;;9.86;53.29
14295;BME280;7231;59.370;18.016;2023-05-01T10:45:47;100981.72;;;9.76;53.64
14295;BME280;7231;59.370;18.016;2023-05-01T10:48:54;100998.78;;;9.65;54.35
14295;BME280;7231;59.370;18.016;2023-05-01T10:51:23;100991.81;;;9.40;55.43
14295;BME280;7231;59.370;18.016;2023-05-01T10:54:21;100992.38;;;9.07;57.23
14295;BME280;7231;59.370;18.016;2023-05-01T10:56:54;100964.09;;;8.73;57.94
14295;BME280;7231;59.370;18.016;2023-05-01T10:59:21;100947.84;;;8.58;58.79
14295;BME280;7231;59.370;18.016;2023-05-01T11:01:51;100967.22;;;8.63;58.91
14295;BME280;7231;59.370;18.016;2023-05-01T11:04:49;100970.66;;;8.62;60.15
14295;BME280;7231;59.370;18.016;2023-05-01T11:07:22;100965.00;;;8.74;60.08
14295;BME280;7231;59.370;18.016;2023-05-01T11:09:53;100966.34;;;8.87;60.70
14295;BME280;7231;59.370;18.016;2023-05-01T11:12:47;100963.94;;;8.93;61.50
14295;BME280;7231;59.370;18.016;2023-05-01T11:15:30;100936.41;;;8.78;62.00
14295;BME280;7231;59.370;18.016;2023-05-01T11:17:59;100952.81;;;8.98;61.84
14295;BME280;7231;59.370;18.016;2023-05-01T11:20:51;100954.78;;;9.04;62.75
14295;BME280;7231;59.370;18.016;2023-05-01T11:23:20;100936.97;;;8.94;61.80
14295;BME280;7231;59.370;18.016;2023-05-01T11:25:48;100950.16;;;8.97;62.18
14295;BME280;7231;59.370;18.016;2023-05-01T11:28:20;100953.78;;;9.00;62.41
14295;BME280;7231;59.370;18.016;2023-05-01T11:30:49;100930.00;;;8.94;62.11
14295;BME280;7231;59.370;18.016;2023-05-01T11:33:22;100929.41;;;9.01;62.68
14295;BME280;7231;59.370;18.016;2023-05-01T11:36:02;100928.31;;;9.20;63.24
14295;BME280;7231;59.370;18.016;2023-05-01T11:38:30;100922.00;;;9.39;62.90
14295;BME280;7231;59.370;18.016;2023-05-01T11:41:02;100924.97;;;9.50;63.00
14295;BME280;7231;59.370;18.016;2023-05-01T11:43:31;100770.50;;;8.69;63.15
14295;BME280;7231;59.370;18.016;2023-05-01T11:45:59;100921.31;;;9.44;63.00
14295;BME280;7231;59.370;18.016;2023-05-01T11:48:30;100919.78;;;9.26;63.27
14295;BME280;7231;59.370;18.016;2023-05-01T11:50:58;100900.00;;;9.08;63.47
14295;BME280;7231;59.370;18.016;2023-05-01T11:53:28;100918.38;;;9.10;63.66
14295;BME280;7231;59.370;18.016;2023-05-01T11:55:56;100913.66;;;9.00;63.49
14295;BME280;7231;59.370;18.016;2023-05-01T11:58:32;100915.22;;;8.95;63.49
14295;BME280;7231;59.370;18.016;2023-05-01T12:01:02;100912.03;;;9.03;63.54
14295;BME280;7231;59.370;18.016;2023-05-01T12:03:42;100910.59;;;8.88;63.28
14295;BME280;7231;59.370;18.016;2023-05-01T12:06:11;100833.25;;;8.23;64.44
14295;BME280;7231;59.370;18.016;2023-05-01T12:08:47;100920.13;;;8.39;66.47
14295;BME280;7231;59.370;18.016;2023-05-01T12:11:18;100906.56;;;8.05;67.51
14295;BME280;7231;59.370;18.016;2023-05-01T12:13:47;100915.25;;;8.04;68.52
14295;BME280;7231;59.370;18.016;2023-05-01T12:16:15;100906.75;;;8.09;69.01
14295;BME280;7231;59.370;18.016;2023-05-01T12:18:44;100912.97;;;8.13;70.66
14295;BME280;7231;59.370;18.016;2023-05-01T12:21:14;100900.41;;;8.03;70.63
14295;BME280;7231;59.370;18.016;2023-05-01T12:23:45;100891.19;;;7.90;71.28
14295;BME280;7231;59.370;18.016;2023-05-01T12:26:16;100843.03;;;7.60;71.09
14295;BME280;7231;59.370;18.016;2023-05-01T12:28:55;100738.53;;;6.91;73.62
14295;BME280;7231;59.370;18.016;2023-05-01T12:31:24;100895.72;;;7.72;74.07
14295;BME280;7231;59.370;18.016;2023-05-01T12:33:53;100891.19;;;7.68;75.14
14295;BME280;7231;59.370;18.016;2023-05-01T12:36:22;100876.72;;;7.54;75.17
14295;BME280;7231;59.370;18.016;2023-05-01T12:39:01;100893.44;;;7.59;76.18
14295;BME280;7231;59.370;18.016;2023-05-01T12:41:37;100852.34;;;7.32;76.99
14295;BME280;7231;59.370;18.016;2023-05-01T12:44:17;100891.84;;;7.41;78.59
14295;BME280;7231;59.370;18.016;2023-05-01T12:46:52;100872.84;;;7.23;78.55
14295;BME280;7231;59.370;18.016;2023-05-01T12:49:21;100885.19;;;7.27;78.57
14295;BME280;7231;59.370;18.016;2023-05-01T12:51:51;100881.50;;;7.22;79.28
14295;BME280;7231;59.370;18.016;2023-05-01T12:54:25;100886.56;;;7.19;80.51
14295;BME280;7231;59.370;18.016;2023-05-01T12:57:04;100873.09;;;7.08;81.33
14295;BME280;7231;59.370;18.016;2023-05-01T12:59:34;100861.59;;;6.84;81.96
14295;BME280;7231;59.370;18.016;2023-05-01T13:02:06;100876.88;;;6.96;82.77
14295;BME280;7231;59.370;18.016;2023-05-01T13:04:36;100874.00;;;6.90;83.45
14295;BME280;7231;59.370;18.016;2023-05-01T13:07:10;100875.72;;;6.89;84.01
14295;BME280;7231;59.370;18.016;2023-05-01T13:09:50;100867.72;;;6.84;84.50
14295;BME280;7231;59.370;18.016;2023-05-01T13:12:18;100864.06;;;6.81;84.45
14295;BME280;7231;59.370;18.016;2023-05-01T13:14:46;100759.00;;;6.21;84.66
14295;BME280;7231;59.370;18.016;2023-05-01T13:17:21;100827.00;;;6.67;85.48
14295;BME280;7231;59.370;18.016;2023-05-01T13:19:52;100861.03;;;6.91;85.56